sensor_id;sensor_type;location;lat;lon;timestamp;pressure;altitude;pressure_sealevel;temperature;humidity
41830;BME280;38614;43.472;23.936;2023-08-24T00:01:24;100096.72;;;23.52;60.77
41830;BME280;38614;43.472;23.936;2023-08-24T00:04:11;100100.22;;;23.59;61.19
41830;BME280;38614;43.472;23.936;2023-08-24T00:06:59;100098.97;;;23.55;61.84
41830;BME280;38614;43.472;23.936;2023-08-24T00:09:47;100085.56;;;23.35;62.63
41830;BME280;38614;43.472;23.936;2023-08-24T00:12:35;100089.16;;;23.28;63.07
41830;BME280;38614;43.472;23.936;2023-08-24T00:15:23;100103.88;;;23.37;62.90
41830;BME280;38614;43.472;23.936;2023-08-24T00:18:11;100091.34;;;23.24;62.55
41830;BME280;38614;43.472;23.936;2023-08-24T00:20:59;100095.44;;;23.27;61.90
41830;BME280;38614;43.472;23.936;2023-08-24T00:23:47;100098.78;;;23.35;62.44
41830;BME280;38614;43.472;23.936;2023-08-24T00:26:35;100094.56;;;23.41;62.39
41830;BME280;38614;43.472;23.936;2023-08-24T00:29:23;100090.16;;;23.27;62.81
41830;BME280;38614;43.472;23.936;2023-08-24T00:32:10;100101.66;;;23.19;63.47
41830;BME280;38614;43.472;23.936;2023-08-24T00:34:58;100105.56;;;23.23;63.38
41830;BME280;38614;43.472;23.936;2023-08-24T00:37:50;100099.44;;;23.23;62.92
41830;BME280;38614;43.472;23.936;2023-08-24T00:40:38;100105.91;;;23.35;63.30
41830;BME280;38614;43.472;23.936;2023-08-24T00:43:28;100105.75;;;23.22;63.08
41830;BME280;38614;43.472;23.936;2023-08-24T00:46:16;100107.31;;;23.16;63.26
41830;BME280;38614;43.472;23.936;2023-08-24T00:49:06;100101.03;;;23.17;63.54
41830;BME280;38614;43.472;23.936;2023-08-24T00:51:56;100100.69;;;23.05;64.23
41830;BME280;38614;43.472;23.936;2023-08-24T00:54:44;100099.88;;;23.05;64.56
41830;BME280;38614;43.472;23.936;2023-08-24T00:57:32;100091.47;;;23.01;63.98
41830;BME280;38614;43.472;23.936;2023-08-24T01:00:20;100097.94;;;23.13;64.19
41830;BME280;38614;43.472;23.936;2023-08-24T01:03:09;100091.03;;;23.12;64.04
41830;BME280;38614;43.472;23.936;2023-08-24T01:05:57;100085.22;;;23.02;64.44
41830;BME280;38614;43.472;23.936;2023-08-24T01:08:45;100092.31;;;23.02;64.34
41830;BME280;38614;43.472;23.936;2023-08-24T01:14:52;100102.06;;;22.86;65.17
41830;BME280;38614;43.472;23.936;2023-08-24T01:17:45;100090.41;;;22.81;65.47
41830;BME280;38614;43.472;23.936;2023-08-24T01:20:35;100089.25;;;22.68;66.25
41830;BME280;38614;43.472;23.936;2023-08-24T01:24:10;100098.88;;;22.76;65.72
41830;BME280;38614;43.472;23.936;2023-08-24T01:26:48;100100.25;;;22.72;65.62
41830;BME280;38614;43.472;23.936;2023-08-24T01:29:37;100105.81;;;22.77;64.98
41830;BME280;38614;43.472;23.936;2023-08-24T01:32:30;100100.53;;;22.77;65.51
41830;BME280;38614;43.472;23.936;2023-08-24T01:35:18;100099.50;;;22.78;65.09
41830;BME280;38614;43.472;23.936;2023-08-24T01:38:06;100111.84;;;22.71;65.96
41830;BME280;38614;43.472;23.936;2023-08-24T01:41:16;100096.16;;;22.69;66.37
41830;BME280;38614;43.472;23.936;2023-08-24T01:44:06;100102.91;;;22.72;65.93
41830;BME280;38614;43.472;23.936;2023-08-24T01:46:56;100101.97;;;22.65;65.84
41830;BME280;38614;43.472;23.936;2023-08-24T01:49:47;100106.72;;;22.69;66.44
41830;BME280;38614;43.472;23.936;2023-08-24T01:52:35;100104.63;;;22.65;65.47
41830;BME280;38614;43.472;23.936;2023-08-24T01:55:23;100114.00;;;22.67;66.53
41830;BME280;38614;43.472;23.936;2023-08-24T01:58:11;100083.16;;;22.53;66.29
41830;BME280;38614;43.472;23.936;2023-08-24T02:00:58;100105.25;;;22.67;66.37
41830;BME280;38614;43.472;23.936;2023-08-24T02:03:46;100101.53;;;22.61;66.73
41830;BME280;38614;43.472;23.936;2023-08-24T02:06:34;100100.56;;;22.62;66.29
41830;BME280;38614;43.472;23.936;2023-08-24T02:09:21;100106.00;;;22.61;66.59
41830;BME280;38614;43.472;23.936;2023-08-24T02:12:11;100098.44;;;22.58;66.05
41830;BME280;38614;43.472;23.936;2023-08-24T02:14:59;100109.38;;;22.55;66.63
41830;BME280;38614;43.472;23.936;2023-08-24T02:17:47;100106.91;;;22.53;66.62
41830;BME280;38614;43.472;23.936;2023-08-24T02:20:36;100112.00;;;22.55;67.17
41830;BME280;38614;43.472;23.936;2023-08-24T02:23:24;100101.19;;;22.49;66.60
41830;BME280;38614;43.472;23.936;2023-08-24T02:26:11;100109.25;;;22.48;67.17
41830;BME280;38614;43.472;23.936;2023-08-24T02:28:59;100112.75;;;22.48;67.08
41830;BME280;38614;43.472;23.936;2023-08-24T02:31:49;100102.53;;;22.45;67.14
41830;BME280;38614;43.472;23.936;2023-08-24T02:34:37;100108.28;;;22.49;67.00
41830;BME280;38614;43.472;23.936;2023-08-24T02:37:27;100103.38;;;22.46;66.28
41830;BME280;38614;43.472;23.936;2023-08-24T02:40:15;100097.06;;;22.47;65.84
41830;BME280;38614;43.472;23.936;2023-08-24T02:43:03;100102.34;;;22.47;65.00
41830;BME280;38614;43.472;23.936;2023-08-24T02:45:50;100093.50;;;22.40;64.88
41830;BME280;38614;43.472;23.936;2023-08-24T02:48:38;100099.03;;;22.15;66.43
41830;BME280;38614;43.472;23.936;2023-08-24T02:51:26;100105.44;;;22.21;66.54
41830;BME280;38614;43.472;23.936;2023-08-24T02:54:14;100101.44;;;22.25;66.59
41830;BME280;38614;43.472;23.936;2023-08-24T02:57:01;100102.16;;;22.19;67.00
41830;BME280;38614;43.472;23.936;2023-08-24T02:59:50;100106.63;;;22.18;66.91
41830;BME280;38614;43.472;23.936;2023-08-24T03:02:37;100091.19;;;22.07;67.24
41830;BME280;38614;43.472;23.936;2023-08-24T03:05:25;100089.53;;;22.06;67.16
41830;BME280;38614;43.472;23.936;2023-08-24T03:08:13;100093.47;;;22.10;67.10
41830;BME280;38614;43.472;23.936;2023-08-24T03:11:01;100096.75;;;22.12;67.67
41830;BME280;38614;43.472;23.936;2023-08-24T03:13:50;100098.00;;;22.01;67.93
41830;BME280;38614;43.472;23.936;2023-08-24T03:16:40;100109.47;;;22.08;68.40
41830;BME280;38614;43.472;23.936;2023-08-24T03:19:27;100106.00;;;22.08;67.68
41830;BME280;38614;43.472;23.936;2023-08-24T03:22:16;100103.44;;;22.00;68.00
41830;BME280;38614;43.472;23.936;2023-08-24T03:25:04;100126.59;;;21.90;68.01
41830;BME280;38614;43.472;23.936;2023-08-24T03:27:52;100137.81;;;21.92;68.10
41830;BME280;38614;43.472;23.936;2023-08-24T03:30:50;100123.81;;;21.91;67.54
41830;BME280;38614;43.472;23.936;2023-08-24T03:33:39;100117.88;;;21.89;67.42
41830;BME280;38614;43.472;23.936;2023-08-24T03:36:27;100130.25;;;21.89;69.29
41830;BME280;38614;43.472;23.936;2023-08-24T03:39:16;100136.34;;;21.89;69.23
41830;BME280;38614;43.472;23.936;2023-08-24T03:42:04;100140.44;;;21.92;68.75
41830;BME280;38614;43.472;23.936;2023-08-24T03:44:52;100141.09;;;21.94;68.93
41830;BME280;38614;43.472;23.936;2023-08-24T03:47:40;100139.63;;;21.91;68.87
41830;BME280;38614;43.472;23.936;2023-08-24T03:50:28;100144.16;;;21.82;68.64
41830;BME280;38614;43.472;23.936;2023-08-24T03:53:16;100125.03;;;21.80;68.96
41830;BME280;38614;43.472;23.936;2023-08-24T03:56:04;100146.44;;;21.85;69.14
41830;BME280;38614;43.472;23.936;2023-08-24T03:58:51;100139.16;;;21.88;68.68
41830;BME280;38614;43.472;23.936;2023-08-24T04:01:39;100147.00;;;21.96;68.78
41830;BME280;38614;43.472;23.936;2023-08-24T04:04:27;100136.63;;;21.94;68.97
41830;BME280;38614;43.472;23.936;2023-08-24T04:07:15;100140.06;;;21.95;68.53
41830;BME280;38614;43.472;23.936;2023-08-24T04:10:03;100146.28;;;22.02;68.30
41830;BME280;38614;43.472;23.936;2023-08-24T04:12:54;100144.47;;;22.02;69.04
41830;BME280;38614;43.472;23.936;2023-08-24T04:15:41;100163.28;;;21.99;68.71
41830;BME280;38614;43.472;23.936;2023-08-24T04:18:29;100143.47;;;22.03;68.79
41830;BME280;38614;43.472;23.936;2023-08-24T04:21:17;100136.03;;;22.07;68.53
41830;BME280;38614;43.472;23.936;2023-08-24T04:24:05;100156.84;;;22.25;68.01
41830;BME280;38614;43.472;23.936;2023-08-24T04:26:52;100154.09;;;22.18;68.34
41830;BME280;38614;43.472;23.936;2023-08-24T04:29:40;100157.88;;;22.16;67.92
41830;BME280;38614;43.472;23.936;2023-08-24T04:32:28;100159.94;;;22.28;66.75
41830;BME280;38614;43.472;23.936;2023-08-24T04:35:16;100139.66;;;22.29;67.27
41830;BME280;38614;43.472;23.936;2023-08-24T04:38:04;100149.66;;;22.34;66.66
41830;BME280;38614;43.472;23.936;2023-08-24T04:40:53;100160.88;;;22.50;66.42
41830;BME280;38614;43.472;23.936;2023-08-24T04:43:41;100156.84;;;22.40;66.94
41830;BME280;38614;43.472;23.936;2023-08-24T04:46:29;100164.16;;;22.52;66.60
41830;BME280;38614;43.472;23.936;2023-08-24T04:49:17;100154.59;;;22.66;65.82
41830;BME280;38614;43.472;23.936;2023-08-24T04:52:05;100147.88;;;22.64;66.96
41830;BME280;38614;43.472;23.936;2023-08-24T04:54:53;100158.78;;;22.61;66.89
41830;BME280;38614;43.472;23.936;2023-08-24T04:57:41;100161.63;;;22.74;66.37
41830;BME280;38614;43.472;23.936;2023-08-24T05:00:29;100176.22;;;23.00;66.15
41830;BME280;38614;43.472;23.936;2023-08-24T05:03:20;100162.00;;;23.01;65.69
41830;BME280;38614;43.472;23.936;2023-08-24T05:06:08;100176.66;;;23.03;66.02
41830;BME280;38614;43.472;23.936;2023-08-24T05:08:56;100176.00;;;23.16;66.12
41830;BME280;38614;43.472;23.936;2023-08-24T05:11:44;100174.94;;;23.47;65.72
41830;BME280;38614;43.472;23.936;2023-08-24T05:14:32;100181.63;;;23.64;64.21
41830;BME280;38614;43.472;23.936;2023-08-24T05:17:20;100180.00;;;23.63;63.65
41830;BME280;38614;43.472;23.936;2023-08-24T05:20:09;100186.22;;;23.92;64.01
41830;BME280;38614;43.472;23.936;2023-08-24T05:22:59;100187.28;;;23.76;63.44
41830;BME280;38614;43.472;23.936;2023-08-24T05:25:47;100189.66;;;23.92;63.27
41830;BME280;38614;43.472;23.936;2023-08-24T05:28:35;100187.56;;;24.09;63.11
41830;BME280;38614;43.472;23.936;2023-08-24T05:31:23;100184.28;;;24.28;63.21
41830;BME280;38614;43.472;23.936;2023-08-24T05:34:11;100186.50;;;24.25;61.63
41830;BME280;38614;43.472;23.936;2023-08-24T05:36:59;100187.00;;;24.63;63.26
41830;BME280;38614;43.472;23.936;2023-08-24T05:39:46;100168.56;;;24.83;61.07
41830;BME280;38614;43.472;23.936;2023-08-24T05:42:34;100183.50;;;24.91;60.88
41830;BME280;38614;43.472;23.936;2023-08-24T05:45:24;100175.56;;;24.91;61.32
41830;BME280;38614;43.472;23.936;2023-08-24T05:48:13;100170.84;;;25.28;60.90
41830;BME280;38614;43.472;23.936;2023-08-24T05:51:01;100181.31;;;25.62;59.95
41830;BME280;38614;43.472;23.936;2023-08-24T05:53:49;100190.31;;;25.68;60.10
41830;BME280;38614;43.472;23.936;2023-08-24T05:56:36;100175.59;;;25.59;59.80
41830;BME280;38614;43.472;23.936;2023-08-24T05:59:24;100183.66;;;26.12;59.03
41830;BME280;38614;43.472;23.936;2023-08-24T06:02:12;100179.19;;;26.19;58.02
41830;BME280;38614;43.472;23.936;2023-08-24T06:05:03;100187.13;;;26.26;57.86
41830;BME280;38614;43.472;23.936;2023-08-24T06:07:50;100182.84;;;26.51;57.17
41830;BME280;38614;43.472;23.936;2023-08-24T06:10:39;100175.28;;;26.42;58.31
41830;BME280;38614;43.472;23.936;2023-08-24T06:13:28;100182.63;;;26.60;57.54
41830;BME280;38614;43.472;23.936;2023-08-24T06:16:15;100178.09;;;26.80;56.91
41830;BME280;38614;43.472;23.936;2023-08-24T06:19:03;100164.31;;;26.96;56.04
41830;BME280;38614;43.472;23.936;2023-08-24T06:21:51;100171.66;;;27.01;57.14
41830;BME280;38614;43.472;23.936;2023-08-24T06:24:38;100177.41;;;27.50;56.31
41830;BME280;38614;43.472;23.936;2023-08-24T06:27:26;100169.16;;;27.58;54.29
41830;BME280;38614;43.472;23.936;2023-08-24T06:30:14;100177.88;;;28.03;54.49
41830;BME280;38614;43.472;23.936;2023-08-24T06:33:03;100163.81;;;27.96;53.28
41830;BME280;38614;43.472;23.936;2023-08-24T06:35:51;100181.72;;;28.07;53.13
41830;BME280;38614;43.472;23.936;2023-08-24T06:38:39;100163.44;;;28.43;53.05
41830;BME280;38614;43.472;23.936;2023-08-24T06:41:27;100170.72;;;28.72;52.67
41830;BME280;38614;43.472;23.936;2023-08-24T06:44:18;100156.34;;;28.92;52.99
41830;BME280;38614;43.472;23.936;2023-08-24T06:47:08;100159.38;;;28.95;51.70
41830;BME280;38614;43.472;23.936;2023-08-24T06:49:56;100160.31;;;28.83;51.80
41830;BME280;38614;43.472;23.936;2023-08-24T06:52:43;100152.69;;;29.05;50.48
41830;BME280;38614;43.472;23.936;2023-08-24T06:55:31;100156.28;;;29.29;49.59
41830;BME280;38614;43.472;23.936;2023-08-24T06:58:19;100163.06;;;29.43;48.18
41830;BME280;38614;43.472;23.936;2023-08-24T07:01:07;100171.66;;;29.75;49.28
41830;BME280;38614;43.472;23.936;2023-08-24T07:03:57;100158.44;;;29.80;48.75
41830;BME280;38614;43.472;23.936;2023-08-24T07:06:45;100171.97;;;30.44;47.79
41830;BME280;38614;43.472;23.936;2023-08-24T07:09:33;100159.53;;;30.15;45.74
41830;BME280;38614;43.472;23.936;2023-08-24T07:12:24;100167.19;;;30.58;47.21
41830;BME280;38614;43.472;23.936;2023-08-24T07:15:12;100161.25;;;30.56;46.31
41830;BME280;38614;43.472;23.936;2023-08-24T07:18:01;100150.19;;;30.64;45.04
41830;BME280;38614;43.472;23.936;2023-08-24T07:20:50;100144.50;;;30.84;44.48
41830;BME280;38614;43.472;23.936;2023-08-24T07:23:38;100144.66;;;31.06;43.17
41830;BME280;38614;43.472;23.936;2023-08-24T07:26:25;100165.03;;;31.36;43.70
41830;BME280;38614;43.472;23.936;2023-08-24T07:29:14;100157.41;;;31.45;44.13
41830;BME280;38614;43.472;23.936;2023-08-24T07:32:11;100151.97;;;32.02;42.58
41830;BME280;38614;43.472;23.936;2023-08-24T07:34:59;100159.00;;;32.25;41.49
41830;BME280;38614;43.472;23.936;2023-08-24T07:37:47;100160.00;;;32.02;42.58
41830;BME280;38614;43.472;23.936;2023-08-24T07:40:36;100157.41;;;32.24;42.78
41830;BME280;38614;43.472;23.936;2023-08-24T07:43:24;100165.50;;;32.29;41.57
41830;BME280;38614;43.472;23.936;2023-08-24T07:46:15;100147.47;;;32.24;40.94
41830;BME280;38614;43.472;23.936;2023-08-24T07:49:03;100136.59;;;31.80;41.05
41830;BME280;38614;43.472;23.936;2023-08-24T07:51:51;100161.09;;;31.72;41.56
41830;BME280;38614;43.472;23.936;2023-08-24T07:54:39;100153.59;;;32.03;42.47
41830;BME280;38614;43.472;23.936;2023-08-24T07:57:27;100141.84;;;32.04;41.28
41830;BME280;38614;43.472;23.936;2023-08-24T08:00:14;100150.91;;;32.59;39.90
41830;BME280;38614;43.472;23.936;2023-08-24T08:03:03;100143.34;;;32.17;40.47
41830;BME280;38614;43.472;23.936;2023-08-24T08:05:53;100143.88;;;32.36;40.61
41830;BME280;38614;43.472;23.936;2023-08-24T08:08:42;100149.44;;;32.29;40.02
41830;BME280;38614;43.472;23.936;2023-08-24T08:11:32;100139.38;;;32.58;41.95
41830;BME280;38614;43.472;23.936;2023-08-24T08:14:20;100146.53;;;32.53;39.32
41830;BME280;38614;43.472;23.936;2023-08-24T08:17:11;100160.41;;;33.37;39.31
41830;BME280;38614;43.472;23.936;2023-08-24T08:19:59;100145.63;;;33.35;37.29
41830;BME280;38614;43.472;23.936;2023-08-24T08:22:47;100162.84;;;33.66;37.97
41830;BME280;38614;43.472;23.936;2023-08-24T08:25:35;100159.25;;;33.55;39.27
41830;BME280;38614;43.472;23.936;2023-08-24T08:28:23;100153.19;;;33.38;37.45
41830;BME280;38614;43.472;23.936;2023-08-24T08:31:11;100143.41;;;33.54;38.33
41830;BME280;38614;43.472;23.936;2023-08-24T08:33:59;100141.09;;;33.68;36.22
41830;BME280;38614;43.472;23.936;2023-08-24T08:36:47;100128.50;;;34.06;35.90
41830;BME280;38614;43.472;23.936;2023-08-24T08:39:34;100139.63;;;34.19;37.12
41830;BME280;38614;43.472;23.936;2023-08-24T08:42:22;100151.84;;;34.47;36.21
41830;BME280;38614;43.472;23.936;2023-08-24T08:48:17;100133.41;;;34.66;35.50
41830;BME280;38614;43.472;23.936;2023-08-24T08:51:05;100144.88;;;35.14;34.97
41830;BME280;38614;43.472;23.936;2023-08-24T08:53:53;100138.19;;;35.53;33.65
41830;BME280;38614;43.472;23.936;2023-08-24T08:56:42;100140.56;;;35.19;33.51
41830;BME280;38614;43.472;23.936;2023-08-24T08:59:33;100109.59;;;35.06;33.74
41830;BME280;38614;43.472;23.936;2023-08-24T09:02:23;100120.25;;;34.70;34.60
41830;BME280;38614;43.472;23.936;2023-08-24T09:05:12;100132.47;;;35.08;35.94
41830;BME280;38614;43.472;23.936;2023-08-24T09:08:04;100120.94;;;35.85;32.65
41830;BME280;38614;43.472;23.936;2023-08-24T09:10:53;100127.72;;;35.72;32.19
41830;BME280;38614;43.472;23.936;2023-08-24T09:13:41;100091.59;;;35.42;33.52
41830;BME280;38614;43.472;23.936;2023-08-24T09:16:32;100096.97;;;35.52;33.00
41830;BME280;38614;43.472;23.936;2023-08-24T09:19:28;100110.44;;;35.68;32.82
41830;BME280;38614;43.472;23.936;2023-08-24T09:22:17;100093.44;;;35.88;31.99
41830;BME280;38614;43.472;23.936;2023-08-24T09:25:09;100111.72;;;36.21;31.35
41830;BME280;38614;43.472;23.936;2023-08-24T09:28:01;100101.03;;;35.75;32.02
41830;BME280;38614;43.472;23.936;2023-08-24T09:30:54;100099.63;;;35.93;31.33
41830;BME280;38614;43.472;23.936;2023-08-24T09:33:43;100101.25;;;36.10;32.24
41830;BME280;38614;43.472;23.936;2023-08-24T09:36:36;100097.88;;;36.49;31.65
41830;BME280;38614;43.472;23.936;2023-08-24T09:39:24;100099.09;;;36.77;31.06
41830;BME280;38614;43.472;23.936;2023-08-24T09:42:13;100095.75;;;36.95;31.76
41830;BME280;38614;43.472;23.936;2023-08-24T09:45:04;100098.16;;;36.47;30.86
41830;BME280;38614;43.472;23.936;2023-08-24T09:47:52;100070.91;;;36.43;30.18
41830;BME280;38614;43.472;23.936;2023-08-24T09:50:41;100091.97;;;36.91;31.42
41830;BME280;38614;43.472;23.936;2023-08-24T09:53:33;100080.78;;;37.13;29.86
41830;BME280;38614;43.472;23.936;2023-08-24T09:56:21;100084.59;;;36.62;30.78
41830;BME280;38614;43.472;23.936;2023-08-24T09:59:16;100079.44;;;36.71;30.35
41830;BME280;38614;43.472;23.936;2023-08-24T10:02:20;100074.31;;;36.70;29.91
41830;BME280;38614;43.472;23.936;2023-08-24T10:05:08;100068.06;;;36.74;29.57
41830;BME280;38614;43.472;23.936;2023-08-24T10:08:18;100072.59;;;36.24;29.51
41830;BME280;38614;43.472;23.936;2023-08-24T10:11:10;100076.09;;;36.89;29.69
41830;BME280;38614;43.472;23.936;2023-08-24T10:14:28;100066.63;;;36.92;28.79
41830;BME280;38614;43.472;23.936;2023-08-24T10:17:17;100045.28;;;36.90;27.23
41830;BME280;38614;43.472;23.936;2023-08-24T10:20:07;100051.31;;;37.17;29.38
41830;BME280;38614;43.472;23.936;2023-08-24T10:22:57;100043.56;;;37.10;28.48
41830;BME280;38614;43.472;23.936;2023-08-24T10:25:51;100045.31;;;36.85;27.66
41830;BME280;38614;43.472;23.936;2023-08-24T10:28:40;100043.41;;;36.86;27.59
41830;BME280;38614;43.472;23.936;2023-08-24T10:31:29;100036.06;;;36.52;28.56
41830;BME280;38614;43.472;23.936;2023-08-24T10:34:18;100031.78;;;36.90;27.65
41830;BME280;38614;43.472;23.936;2023-08-24T10:37:08;100040.19;;;36.39;29.04
41830;BME280;38614;43.472;23.936;2023-08-24T10:39:57;100032.28;;;36.98;30.05
41830;BME280;38614;43.472;23.936;2023-08-24T10:42:46;100005.78;;;37.00;27.70
41830;BME280;38614;43.472;23.936;2023-08-24T10:45:54;100027.50;;;37.24;27.36
41830;BME280;38614;43.472;23.936;2023-08-24T10:51:42;100025.72;;;37.14;27.94
41830;BME280;38614;43.472;23.936;2023-08-24T10:54:30;100012.88;;;36.56;27.79
41830;BME280;38614;43.472;23.936;2023-08-24T10:57:26;100006.09;;;36.98;28.40
41830;BME280;38614;43.472;23.936;2023-08-24T11:00:21;99990.81;;;37.47;28.93
41830;BME280;38614;43.472;23.936;2023-08-24T11:03:10;100008.94;;;37.75;28.23
41830;BME280;38614;43.472;23.936;2023-08-24T11:05:58;99996.50;;;37.50;26.88
41830;BME280;38614;43.472;23.936;2023-08-24T11:08:47;99999.44;;;37.54;28.82
41830;BME280;38614;43.472;23.936;2023-08-24T11:11:36;99985.44;;;37.42;27.08
41830;BME280;38614;43.472;23.936;2023-08-24T11:14:24;99982.38;;;37.59;27.63
41830;BME280;38614;43.472;23.936;2023-08-24T11:17:20;99978.03;;;37.28;30.31
41830;BME280;38614;43.472;23.936;2023-08-24T11:20:08;99985.66;;;37.21;28.51
41830;BME280;38614;43.472;23.936;2023-08-24T11:22:56;99989.00;;;36.24;29.56
41830;BME280;38614;43.472;23.936;2023-08-24T11:25:46;99982.84;;;36.68;29.39
41830;BME280;38614;43.472;23.936;2023-08-24T11:28:37;99963.47;;;37.24;29.40
41830;BME280;38614;43.472;23.936;2023-08-24T11:31:25;99988.28;;;36.97;29.57
41830;BME280;38614;43.472;23.936;2023-08-24T11:34:15;99974.00;;;36.57;29.57
41830;BME280;38614;43.472;23.936;2023-08-24T11:37:03;99967.72;;;36.72;28.23
41830;BME280;38614;43.472;23.936;2023-08-24T11:39:51;99959.13;;;37.28;28.63
41830;BME280;38614;43.472;23.936;2023-08-24T11:42:38;99957.00;;;37.25;29.86
41830;BME280;38614;43.472;23.936;2023-08-24T11:45:32;99967.47;;;37.32;29.00
41830;BME280;38614;43.472;23.936;2023-08-24T11:48:27;99948.28;;;37.33;27.52
41830;BME280;38614;43.472;23.936;2023-08-24T11:51:18;99941.38;;;37.46;28.22
41830;BME280;38614;43.472;23.936;2023-08-24T11:54:24;99961.09;;;37.47;26.88
41830;BME280;38614;43.472;23.936;2023-08-24T11:57:12;99951.66;;;37.20;27.78
41830;BME280;38614;43.472;23.936;2023-08-24T12:00:00;99933.97;;;37.04;27.98
41830;BME280;38614;43.472;23.936;2023-08-24T12:02:51;99936.47;;;37.24;27.27
41830;BME280;38614;43.472;23.936;2023-08-24T12:05:39;99934.06;;;37.23;27.93
41830;BME280;38614;43.472;23.936;2023-08-24T12:08:27;99930.28;;;37.48;26.83
41830;BME280;38614;43.472;23.936;2023-08-24T12:11:19;99938.91;;;36.91;27.00
41830;BME280;38614;43.472;23.936;2023-08-24T12:14:07;99944.34;;;37.21;27.10
41830;BME280;38614;43.472;23.936;2023-08-24T12:16:57;99933.66;;;36.76;27.31
41830;BME280;38614;43.472;23.936;2023-08-24T12:19:56;99928.00;;;37.07;27.33
41830;BME280;38614;43.472;23.936;2023-08-24T12:22:44;99921.41;;;37.18;26.71
41830;BME280;38614;43.472;23.936;2023-08-24T12:25:36;99924.50;;;37.06;27.50
41830;BME280;38614;43.472;23.936;2023-08-24T12:28:29;99918.78;;;36.79;28.69
41830;BME280;38614;43.472;23.936;2023-08-24T12:31:17;99910.63;;;37.18;28.84
41830;BME280;38614;43.472;23.936;2023-08-24T12:34:06;99917.13;;;37.17;28.09
41830;BME280;38614;43.472;23.936;2023-08-24T12:36:56;99920.53;;;36.94;27.96
41830;BME280;38614;43.472;23.936;2023-08-24T12:39:44;99903.34;;;36.84;28.72
41830;BME280;38614;43.472;23.936;2023-08-24T12:42:32;99926.81;;;37.18;28.25
41830;BME280;38614;43.472;23.936;2023-08-24T12:45:23;99904.91;;;36.90;27.62
41830;BME280;38614;43.472;23.936;2023-08-24T12:48:10;99921.41;;;37.18;26.66
41830;BME280;38614;43.472;23.936;2023-08-24T12:50:58;99918.22;;;36.82;27.31
41830;BME280;38614;43.472;23.936;2023-08-24T12:53:46;99913.53;;;36.93;26.41
41830;BME280;38614;43.472;23.936;2023-08-24T12:56:34;99917.97;;;37.12;25.34
41830;BME280;38614;43.472;23.936;2023-08-24T12:59:22;99899.72;;;37.28;25.06
41830;BME280;38614;43.472;23.936;2023-08-24T13:02:10;99895.75;;;37.45;26.33
41830;BME280;38614;43.472;23.936;2023-08-24T13:05:11;99893.84;;;37.45;26.42
41830;BME280;38614;43.472;23.936;2023-08-24T13:07:59;99900.09;;;37.17;26.78
41830;BME280;38614;43.472;23.936;2023-08-24T13:10:47;99898.94;;;36.94;25.95
41830;BME280;38614;43.472;23.936;2023-08-24T13:13:34;99897.72;;;37.10;26.41
41830;BME280;38614;43.472;23.936;2023-08-24T13:16:22;99893.72;;;37.07;26.68
41830;BME280;38614;43.472;23.936;2023-08-24T13:19:09;99881.00;;;37.08;25.93
41830;BME280;38614;43.472;23.936;2023-08-24T13:21:57;99885.03;;;37.10;26.52
41830;BME280;38614;43.472;23.936;2023-08-24T13:24:45;99889.19;;;37.03;24.77
41830;BME280;38614;43.472;23.936;2023-08-24T13:27:33;99871.22;;;36.83;25.97
41830;BME280;38614;43.472;23.936;2023-08-24T13:30:21;99887.72;;;37.10;25.79
41830;BME280;38614;43.472;23.936;2023-08-24T13:33:08;99886.78;;;36.96;26.48
41830;BME280;38614;43.472;23.936;2023-08-24T13:35:56;99888.31;;;36.78;27.03
41830;BME280;38614;43.472;23.936;2023-08-24T13:38:44;99874.28;;;36.76;27.03
41830;BME280;38614;43.472;23.936;2023-08-24T13:41:33;99878.44;;;36.93;26.98
41830;BME280;38614;43.472;23.936;2023-08-24T13:44:20;99863.66;;;36.85;26.87
41830;BME280;38614;43.472;23.936;2023-08-24T13:47:08;99880.81;;;37.28;26.07
41830;BME280;38614;43.472;23.936;2023-08-24T13:49:56;99875.97;;;37.01;26.93
41830;BME280;38614;43.472;23.936;2023-08-24T13:52:43;99884.88;;;36.97;26.63
41830;BME280;38614;43.472;23.936;2023-08-24T13:55:31;99883.22;;;37.01;26.23
41830;BME280;38614;43.472;23.936;2023-08-24T13:58:38;99887.63;;;36.91;24.87
41830;BME280;38614;43.472;23.936;2023-08-24T14:01:25;99880.44;;;36.82;24.17
41830;BME280;38614;43.472;23.936;2023-08-24T14:04:13;99876.13;;;36.81;23.95
41830;BME280;38614;43.472;23.936;2023-08-24T14:07:01;99868.16;;;36.65;26.08
41830;BME280;38614;43.472;23.936;2023-08-24T14:09:49;99869.53;;;36.63;26.64
41830;BME280;38614;43.472;23.936;2023-08-24T14:12:52;99877.59;;;36.68;25.30
41830;BME280;38614;43.472;23.936;2023-08-24T14:15:40;99866.16;;;36.47;26.06
41830;BME280;38614;43.472;23.936;2023-08-24T14:18:28;99858.72;;;36.29;26.34
41830;BME280;38614;43.472;23.936;2023-08-24T14:21:16;99867.19;;;35.52;26.18
41830;BME280;38614;43.472;23.936;2023-08-24T14:24:13;99871.38;;;35.08;27.77
41830;BME280;38614;43.472;23.936;2023-08-24T14:27:01;99882.66;;;34.80;27.10
41830;BME280;38614;43.472;23.936;2023-08-24T14:29:48;99879.72;;;34.56;27.91
41830;BME280;38614;43.472;23.936;2023-08-24T14:32:36;99926.22;;;34.51;27.97
41830;BME280;38614;43.472;23.936;2023-08-24T14:35:24;99942.97;;;33.85;32.09
41830;BME280;38614;43.472;23.936;2023-08-24T14:38:11;99950.91;;;32.95;35.04
41830;BME280;38614;43.472;23.936;2023-08-24T14:40:59;99962.66;;;31.52;40.42
41830;BME280;38614;43.472;23.936;2023-08-24T14:43:50;99948.75;;;30.70;42.14
41830;BME280;38614;43.472;23.936;2023-08-24T14:46:37;99962.00;;;30.37;40.99